METAR Data
IDs: Format: Raw Decoded Include TAF

Data at: 0821 UTC 20 Sep 2018

KDRT 200753Z AUTO 12005KT 10SM BKN032 24/23 A2991 RMK AO2 SLP110 T02440233